createdAt,value
2019-01-23T00:00:01.283Z,2.15
2019-01-23T00:00:32.449Z,3.36
2019-01-23T00:01:03.620Z,3.38
2019-01-23T00:01:34.796Z,3.37
2019-01-23T00:02:05.970Z,3.40
2019-01-23T00:02:37.169Z,3.40
2019-01-23T00:03:08.419Z,3.39
2019-01-23T00:03:39.614Z,3.38
2019-01-23T00:04:10.797Z,3.39
2019-01-23T00:04:41.975Z,3.40
2019-01-23T00:05:13.236Z,3.41
2019-01-23T00:05:44.426Z,3.44
2019-01-23T00:06:15.598Z,3.45
2019-01-23T00:06:46.767Z,3.45
2019-01-23T00:07:17.957Z,3.48
2019-01-23T00:07:49.191Z,3.52
2019-01-23T00:08:20.428Z,3.53
2019-01-23T00:08:51.626Z,3.54
2019-01-23T00:09:22.802Z,3.57
2019-01-23T00:09:54.292Z,3.58
2019-01-23T00:10:25.488Z,3.59
2019-01-23T00:10:56.656Z,3.61
2019-01-23T00:11:27.845Z,3.62
2019-01-23T00:11:59.020Z,3.61
2019-01-23T00:12:30.204Z,3.59
2019-01-23T00:13:01.464Z,3.58
2019-01-23T00:13:32.677Z,3.53
2019-01-23T00:14:03.858Z,3.50
2019-01-23T00:14:35.071Z,3.47
2019-01-23T00:15:06.248Z,3.48
2019-01-23T00:15:37.416Z,3.46
2019-01-23T00:16:09.665Z,3.50
2019-01-23T00:16:40.887Z,3.53
2019-01-23T00:17:12.902Z,3.53
2019-01-23T00:17:44.102Z,3.56
2019-01-23T00:18:15.264Z,3.58
2019-01-23T00:18:46.431Z,3.58
2019-01-23T00:19:17.610Z,3.60
2019-01-23T00:19:48.773Z,3.62
2019-01-23T00:20:20.015Z,3.65
2019-01-23T00:20:51.189Z,3.65
2019-01-23T00:21:22.382Z,3.67
2019-01-23T00:21:53.578Z,3.67
2019-01-23T00:22:24.775Z,3.66
2019-01-23T00:22:55.967Z,3.68
2019-01-23T00:23:27.183Z,3.72
2019-01-23T00:23:58.350Z,3.73
2019-01-23T00:24:29.525Z,3.74
2019-01-23T00:25:00.684Z,3.76
2019-01-23T00:25:31.914Z,3.79
2019-01-23T00:26:03.109Z,3.79
2019-01-23T00:26:34.272Z,3.77
2019-01-23T00:27:05.430Z,3.77
2019-01-23T00:27:36.613Z,3.77
2019-01-23T00:28:07.821Z,3.78
2019-01-23T00:28:42.459Z,3.78
2019-01-23T00:29:11.989Z,3.79
2019-01-23T00:29:43.175Z,3.82
2019-01-23T00:30:14.428Z,3.84
2019-01-23T00:30:45.614Z,3.81
2019-01-23T00:31:16.860Z,3.79
2019-01-23T00:31:48.034Z,3.79
2019-01-23T00:32:19.208Z,3.80
2019-01-23T00:32:50.468Z,3.82
2019-01-23T00:33:21.635Z,3.81
2019-01-23T00:33:52.841Z,3.82
2019-01-23T00:34:24.032Z,3.84
2019-01-23T00:34:55.219Z,3.83
2019-01-23T00:35:26.434Z,3.82
2019-01-23T00:35:57.590Z,3.78
2019-01-23T00:36:28.799Z,3.72
2019-01-23T00:37:00.024Z,3.68
2019-01-23T00:37:31.198Z,3.65
2019-01-23T00:38:02.415Z,3.61
2019-01-23T00:38:33.606Z,3.58
2019-01-23T00:39:04.805Z,3.57
2019-01-23T00:39:35.968Z,3.54
2019-01-23T00:40:07.156Z,3.53
2019-01-23T00:40:38.357Z,3.51
2019-01-23T00:41:09.580Z,3.52
2019-01-23T00:41:40.746Z,3.54
2019-01-23T00:42:11.923Z,3.55
2019-01-23T00:42:43.090Z,3.54
2019-01-23T00:43:14.326Z,3.54
2019-01-23T00:43:45.537Z,3.56
2019-01-23T00:44:16.750Z,3.56
2019-01-23T00:44:47.914Z,3.56
2019-01-23T00:45:19.100Z,3.58
2019-01-23T00:45:50.302Z,3.57
2019-01-23T00:46:21.488Z,3.60
2019-01-23T00:46:52.692Z,3.64
2019-01-23T00:47:23.870Z,3.65
2019-01-23T00:47:55.077Z,3.65
2019-01-23T00:48:26.295Z,3.67
2019-01-23T00:48:57.471Z,3.67
2019-01-23T00:49:28.684Z,3.66
2019-01-23T00:49:59.848Z,3.65
2019-01-23T00:50:31.027Z,3.60
2019-01-23T00:51:02.267Z,3.59
2019-01-23T00:51:34.535Z,3.53
2019-01-23T00:52:05.715Z,3.47
2019-01-23T00:52:36.888Z,3.44
2019-01-23T00:53:08.061Z,3.41
2019-01-23T00:53:39.232Z,3.37
2019-01-23T00:54:10.442Z,3.34
2019-01-23T00:54:41.672Z,3.34
2019-01-23T00:55:12.854Z,3.33
2019-01-23T00:55:44.046Z,3.35
2019-01-23T00:56:15.230Z,3.33
2019-01-23T00:56:46.439Z,3.33
2019-01-23T00:57:17.651Z,3.32
2019-01-23T00:57:48.912Z,3.34
2019-01-23T00:58:20.113Z,3.34
2019-01-23T00:58:51.314Z,3.37
2019-01-23T00:59:24.633Z,3.38
2019-01-23T00:59:55.838Z,3.37
2019-01-23T01:00:27.040Z,3.34
2019-01-23T01:00:58.216Z,3.35
2019-01-23T01:01:29.392Z,3.35
2019-01-23T01:02:00.552Z,3.35
2019-01-23T01:02:32.097Z,3.35
2019-01-23T01:03:03.281Z,3.34
2019-01-23T01:03:34.486Z,3.37
2019-01-23T01:04:05.684Z,3.38
2019-01-23T01:04:36.899Z,3.38
2019-01-23T01:05:08.078Z,3.41
2019-01-23T01:05:39.293Z,3.40
2019-01-23T01:06:10.506Z,3.41
2019-01-23T01:06:41.668Z,3.38
2019-01-23T01:07:12.856Z,3.36
2019-01-23T01:07:44.038Z,3.35
2019-01-23T01:08:15.223Z,3.35
2019-01-23T01:08:46.478Z,3.36
2019-01-23T01:09:17.649Z,3.39
2019-01-23T01:09:48.832Z,3.43
2019-01-23T01:10:20.046Z,3.46
2019-01-23T01:10:51.683Z,3.46
2019-01-23T01:11:22.869Z,3.52
2019-01-23T01:11:54.042Z,3.55
2019-01-23T01:12:25.247Z,3.56
2019-01-23T01:12:56.459Z,3.56
2019-01-23T01:13:27.719Z,3.57
2019-01-23T01:13:58.893Z,3.55
2019-01-23T01:14:30.083Z,3.54
2019-01-23T01:15:01.257Z,3.54
2019-01-23T01:15:32.457Z,3.55
2019-01-23T01:16:03.686Z,3.56
2019-01-23T01:16:34.863Z,3.57
2019-01-23T01:17:06.049Z,3.60
2019-01-23T01:17:37.243Z,3.62
2019-01-23T01:18:08.473Z,3.61
2019-01-23T01:18:39.704Z,3.63
2019-01-23T01:19:10.893Z,3.65
2019-01-23T01:19:42.083Z,3.63
2019-01-23T01:20:13.313Z,3.65
2019-01-23T01:20:44.532Z,3.66
2019-01-23T01:21:15.806Z,3.65
2019-01-23T01:21:46.982Z,3.67
2019-01-23T01:22:18.197Z,3.69
2019-01-23T01:22:49.405Z,3.73
2019-01-23T01:23:20.573Z,3.76
2019-01-23T01:23:51.786Z,3.77
2019-01-23T01:24:23.015Z,3.78
2019-01-23T01:24:54.195Z,3.84
2019-01-23T01:25:25.388Z,3.90
2019-01-23T01:25:56.540Z,3.95
2019-01-23T01:26:27.760Z,3.97
2019-01-23T01:26:58.941Z,3.97
2019-01-23T01:27:30.165Z,3.95
2019-01-23T01:28:01.314Z,3.95
2019-01-23T01:28:32.504Z,3.95
2019-01-23T01:29:03.713Z,3.92
2019-01-23T01:29:34.932Z,3.90
2019-01-23T01:30:06.107Z,3.88
2019-01-23T01:30:37.295Z,3.84
2019-01-23T01:31:08.468Z,3.84
2019-01-23T01:31:39.682Z,3.81
2019-01-23T01:32:10.859Z,3.80
2019-01-23T01:32:42.091Z,3.81
2019-01-23T01:33:13.262Z,3.79
2019-01-23T01:33:44.451Z,3.78
2019-01-23T01:34:15.641Z,3.75
2019-01-23T01:34:46.816Z,3.73
2019-01-23T01:35:17.984Z,3.72
2019-01-23T01:35:49.203Z,3.72
2019-01-23T01:36:20.362Z,3.70
2019-01-23T01:36:51.578Z,3.70
2019-01-23T01:37:22.731Z,3.71
2019-01-23T01:37:53.962Z,3.71
2019-01-23T01:38:25.133Z,3.70
2019-01-23T01:38:56.302Z,3.68
2019-01-23T01:39:27.521Z,3.67
2019-01-23T01:39:58.695Z,3.67
2019-01-23T01:40:29.870Z,3.64
2019-01-23T01:41:01.042Z,3.64
2019-01-23T01:41:32.226Z,3.67
2019-01-23T01:42:03.395Z,3.72
2019-01-23T01:42:34.573Z,3.75
2019-01-23T01:43:05.789Z,3.76
2019-01-23T01:43:36.964Z,3.77
2019-01-23T01:44:08.146Z,3.75
2019-01-23T01:44:39.373Z,3.72
2019-01-23T01:45:10.556Z,3.68
2019-01-23T01:45:41.742Z,3.67
2019-01-23T01:46:12.901Z,3.63
2019-01-23T01:46:44.095Z,3.62
2019-01-23T01:47:15.281Z,3.59
2019-01-23T01:47:46.461Z,3.59
2019-01-23T01:48:17.690Z,3.61
2019-01-23T01:48:48.860Z,3.60
2019-01-23T01:49:20.026Z,3.60
2019-01-23T01:49:51.193Z,3.61
2019-01-23T01:50:22.443Z,3.62
2019-01-23T01:50:53.604Z,3.62
2019-01-23T01:51:24.820Z,3.64
2019-01-23T01:51:56.051Z,3.67
2019-01-23T01:52:27.223Z,3.73
2019-01-23T01:52:58.410Z,2.79
2019-01-23T01:53:29.587Z,3.77
2019-01-23T01:54:00.801Z,3.75
2019-01-23T01:54:31.979Z,3.74
2019-01-23T01:55:03.152Z,3.69
2019-01-23T01:55:34.348Z,3.65
2019-01-23T01:56:05.523Z,3.62
2019-01-23T01:56:36.739Z,3.60
2019-01-23T01:57:07.916Z,3.57
2019-01-23T01:57:39.105Z,3.57
2019-01-23T01:58:10.406Z,3.55
2019-01-23T01:58:41.563Z,3.56
2019-01-23T01:59:12.791Z,3.59
2019-01-23T01:59:43.985Z,3.59
2019-01-23T02:00:15.148Z,3.59
2019-01-23T02:00:46.330Z,3.62
2019-01-23T02:01:17.499Z,3.61
2019-01-23T02:01:48.665Z,3.65
2019-01-23T02:02:19.857Z,3.67
2019-01-23T02:02:51.036Z,3.66
2019-01-23T02:03:22.254Z,3.65
2019-01-23T02:03:53.486Z,3.60
2019-01-23T02:04:24.693Z,3.57
2019-01-23T02:04:55.868Z,3.56
2019-01-23T02:05:27.057Z,3.53
2019-01-23T02:05:58.281Z,3.53
2019-01-23T02:06:29.446Z,3.51
2019-01-23T02:07:00.605Z,3.51
2019-01-23T02:07:31.796Z,3.53
2019-01-23T02:08:03.013Z,3.53
2019-01-23T02:08:34.225Z,3.53
2019-01-23T02:09:05.480Z,3.53
2019-01-23T02:09:36.668Z,3.56
2019-01-23T02:10:07.872Z,3.57
2019-01-23T02:10:39.119Z,3.53
2019-01-23T02:11:10.300Z,3.51
2019-01-23T02:11:41.491Z,3.50
2019-01-23T02:12:12.659Z,3.55
2019-01-23T02:12:43.857Z,3.58
2019-01-23T02:13:15.037Z,3.55
2019-01-23T02:13:46.227Z,3.54
2019-01-23T02:14:17.451Z,3.52
2019-01-23T02:14:48.622Z,3.56
2019-01-23T02:15:19.794Z,3.56
2019-01-23T02:15:51.017Z,3.58
2019-01-23T02:16:22.215Z,3.59
2019-01-23T02:16:53.392Z,3.58
2019-01-23T02:17:24.560Z,3.56
2019-01-23T02:17:55.797Z,3.53
2019-01-23T02:18:26.988Z,3.51
2019-01-23T02:18:58.150Z,3.50
2019-01-23T02:19:29.343Z,3.49
2019-01-23T02:20:00.540Z,3.54
2019-01-23T02:20:31.702Z,2.85
2019-01-23T02:21:02.891Z,3.54
2019-01-23T02:21:34.138Z,3.59
2019-01-23T02:22:05.301Z,3.62
2019-01-23T02:22:38.799Z,3.64
2019-01-23T02:23:10.982Z,3.63
2019-01-23T02:23:42.346Z,3.67
2019-01-23T02:24:13.883Z,3.65
2019-01-23T02:24:45.113Z,3.63
2019-01-23T02:25:16.280Z,3.65
2019-01-23T02:25:47.459Z,3.68
2019-01-23T02:26:18.669Z,3.72
2019-01-23T02:26:49.912Z,3.73
2019-01-23T02:27:21.034Z,3.78
2019-01-23T02:27:53.246Z,3.77
2019-01-23T02:28:24.433Z,3.82
2019-01-23T02:28:55.634Z,3.81
2019-01-23T02:29:26.807Z,3.81
2019-01-23T02:29:58.045Z,3.80
2019-01-23T02:30:29.246Z,3.78
2019-01-23T02:31:00.404Z,3.77
2019-01-23T02:31:31.603Z,3.75
2019-01-23T02:32:02.776Z,3.69
2019-01-23T02:32:33.964Z,3.69
2019-01-23T02:33:05.155Z,3.74
2019-01-23T02:33:37.342Z,3.75
2019-01-23T02:34:08.534Z,3.73
2019-01-23T02:34:39.740Z,3.74
2019-01-23T02:35:10.982Z,3.73
2019-01-23T02:35:42.192Z,3.73
2019-01-23T02:36:13.358Z,3.73
2019-01-23T02:36:44.550Z,3.74
2019-01-23T02:37:15.737Z,3.77
2019-01-23T02:37:46.927Z,3.78
2019-01-23T02:38:18.150Z,3.79
2019-01-23T02:38:49.336Z,3.81
2019-01-23T02:39:20.547Z,3.81
2019-01-23T02:39:51.753Z,3.86
2019-01-23T02:40:22.987Z,3.88
2019-01-23T02:40:54.170Z,3.90
2019-01-23T02:41:25.380Z,3.91
2019-01-23T02:41:56.595Z,3.93
2019-01-23T02:42:27.753Z,3.94
2019-01-23T02:42:58.939Z,3.94
2019-01-23T02:43:30.150Z,3.91
2019-01-23T02:44:01.318Z,3.90
2019-01-23T02:44:32.486Z,3.89
2019-01-23T02:45:03.710Z,3.85
2019-01-23T02:45:34.878Z,3.81
2019-01-23T02:46:06.069Z,3.82
2019-01-23T02:46:38.221Z,3.79
2019-01-23T02:47:09.400Z,3.75
2019-01-23T02:47:40.667Z,3.75
2019-01-23T02:48:11.823Z,3.72
2019-01-23T02:48:43.017Z,3.76
2019-01-23T02:49:14.171Z,3.80
2019-01-23T02:49:45.355Z,3.80
2019-01-23T02:50:17.445Z,3.75
2019-01-23T02:50:48.661Z,3.74
2019-01-23T02:51:20.038Z,3.85
2019-01-23T02:51:51.231Z,3.97
2019-01-23T02:52:22.449Z,4.09
2019-01-23T02:52:53.651Z,4.15
2019-01-23T02:53:24.886Z,4.17
2019-01-23T02:53:56.064Z,4.14
2019-01-23T02:54:27.336Z,4.12
2019-01-23T02:54:58.499Z,4.09
2019-01-23T02:55:29.664Z,4.07
2019-01-23T02:56:00.844Z,4.04
2019-01-23T02:56:32.057Z,4.05
2019-01-23T02:57:03.249Z,4.02
2019-01-23T02:57:34.447Z,3.99
2019-01-23T02:58:05.607Z,3.98
2019-01-23T02:58:36.823Z,4.01
2019-01-23T02:59:08.010Z,4.14
2019-01-23T02:59:39.267Z,4.23
2019-01-23T03:00:10.429Z,4.30
2019-01-23T03:00:41.625Z,4.36
2019-01-23T03:01:12.805Z,4.34
2019-01-23T03:01:43.989Z,4.32
2019-01-23T03:02:15.162Z,4.27
2019-01-23T03:02:48.614Z,4.29
2019-01-23T03:03:19.827Z,4.24
2019-01-23T03:03:51.045Z,4.17
2019-01-23T03:04:22.243Z,4.21
2019-01-23T03:04:53.478Z,4.24
2019-01-23T03:05:24.657Z,4.22
2019-01-23T03:05:55.912Z,4.21
2019-01-23T03:06:27.085Z,4.16
2019-01-23T03:06:58.270Z,4.13
2019-01-23T03:07:29.467Z,4.11
2019-01-23T03:08:00.666Z,4.09
2019-01-23T03:08:31.942Z,4.10
2019-01-23T03:09:03.142Z,4.10
2019-01-23T03:09:34.344Z,4.06
2019-01-23T03:10:05.577Z,4.06
2019-01-23T03:10:36.797Z,4.03
2019-01-23T03:11:07.988Z,4.07
2019-01-23T03:11:39.166Z,4.09
2019-01-23T03:12:10.467Z,4.07
2019-01-23T03:12:41.663Z,4.06
2019-01-23T03:13:12.849Z,4.10
2019-01-23T03:13:44.067Z,4.14
2019-01-23T03:14:15.186Z,4.13
2019-01-23T03:14:46.398Z,4.05
2019-01-23T03:15:17.576Z,4.01
2019-01-23T03:15:48.750Z,4.01
2019-01-23T03:16:19.927Z,3.98
2019-01-23T03:16:51.126Z,3.96
2019-01-23T03:17:22.344Z,3.92
2019-01-23T03:17:53.521Z,3.94
2019-01-23T03:18:24.700Z,3.93
2019-01-23T03:18:55.892Z,3.86
2019-01-23T03:19:27.071Z,3.83
2019-01-23T03:19:58.319Z,3.80
2019-01-23T03:20:29.527Z,3.80
2019-01-23T03:21:00.718Z,3.78
2019-01-23T03:21:31.928Z,3.77
2019-01-23T03:22:03.174Z,3.73
2019-01-23T03:22:36.789Z,3.71
2019-01-23T03:23:07.969Z,3.70
2019-01-23T03:23:39.159Z,3.69
2019-01-23T03:24:10.355Z,3.69
2019-01-23T03:24:41.549Z,3.69
2019-01-23T03:25:12.719Z,3.68
2019-01-23T03:25:43.908Z,3.62
2019-01-23T03:26:15.091Z,3.63
2019-01-23T03:26:46.297Z,3.64
2019-01-23T03:27:17.542Z,3.61
2019-01-23T03:27:48.734Z,3.62
2019-01-23T03:28:19.919Z,3.62
2019-01-23T03:28:51.098Z,3.56
2019-01-23T03:29:24.643Z,3.50
2019-01-23T03:29:55.168Z,3.49
2019-01-23T03:30:26.422Z,3.46
2019-01-23T03:30:57.578Z,3.45
2019-01-23T03:31:28.800Z,3.47
2019-01-23T03:31:59.998Z,3.48
2019-01-23T03:32:31.246Z,3.50
2019-01-23T03:33:02.447Z,3.53
2019-01-23T03:33:33.660Z,3.55
2019-01-23T03:34:04.825Z,3.56
2019-01-23T03:34:36.034Z,3.58
2019-01-23T03:35:07.224Z,3.58
2019-01-23T03:35:38.419Z,3.59
2019-01-23T03:36:09.587Z,3.65
2019-01-23T03:36:40.761Z,3.66
2019-01-23T03:37:11.920Z,3.66
2019-01-23T03:37:43.107Z,3.65
2019-01-23T03:38:14.269Z,3.63
2019-01-23T03:38:45.493Z,3.61
2019-01-23T03:39:16.663Z,3.59
2019-01-23T03:39:47.831Z,3.60
2019-01-23T03:40:19.036Z,3.57
2019-01-23T03:40:50.214Z,3.55
2019-01-23T03:41:21.398Z,3.53
2019-01-23T03:41:52.617Z,3.51
2019-01-23T03:42:23.790Z,3.53
2019-01-23T03:42:55.022Z,3.54
2019-01-23T03:43:26.262Z,3.54
2019-01-23T03:43:57.433Z,3.54
2019-01-23T03:44:28.614Z,3.53
2019-01-23T03:44:59.781Z,3.52
2019-01-23T03:45:31.003Z,3.50
2019-01-23T03:46:02.209Z,3.48
2019-01-23T03:46:33.367Z,3.50
2019-01-23T03:47:04.546Z,3.53
2019-01-23T03:47:35.709Z,3.52
2019-01-23T03:48:06.923Z,3.53
2019-01-23T03:48:38.073Z,3.55
2019-01-23T03:49:09.290Z,3.56
2019-01-23T03:49:40.505Z,3.54
2019-01-23T03:50:11.681Z,3.57
2019-01-23T03:50:43.181Z,3.57
2019-01-23T03:51:14.374Z,3.61
2019-01-23T03:51:45.545Z,3.64
2019-01-23T03:52:16.733Z,3.67
2019-01-23T03:52:47.909Z,3.66
2019-01-23T03:53:19.164Z,3.64
2019-01-23T03:53:50.377Z,3.61
2019-01-23T03:54:21.566Z,3.59
2019-01-23T03:54:52.739Z,3.59
2019-01-23T03:55:23.993Z,3.59
2019-01-23T03:55:55.187Z,3.59
2019-01-23T03:56:26.425Z,3.59
2019-01-23T03:56:57.652Z,3.57
2019-01-23T03:57:28.891Z,3.55
2019-01-23T03:58:00.079Z,3.54
2019-01-23T03:58:31.244Z,3.52
2019-01-23T03:59:04.567Z,3.55
2019-01-23T03:59:35.731Z,3.56
2019-01-23T04:00:06.916Z,3.57
2019-01-23T04:00:38.131Z,3.60
2019-01-23T04:01:09.330Z,3.59
2019-01-23T04:01:40.494Z,3.54
2019-01-23T04:02:11.667Z,3.53
2019-01-23T04:02:42.869Z,3.52
2019-01-23T04:03:14.041Z,3.49
2019-01-23T04:03:45.225Z,3.48
2019-01-23T04:04:16.406Z,3.48
2019-01-23T04:04:47.596Z,3.48
2019-01-23T04:05:18.842Z,3.49
2019-01-23T04:05:50.025Z,3.53
2019-01-23T04:06:21.226Z,3.55
2019-01-23T04:06:52.408Z,3.58
2019-01-23T04:07:23.582Z,3.59
2019-01-23T04:07:54.750Z,3.60
2019-01-23T04:08:25.940Z,3.62
2019-01-23T04:08:57.120Z,3.63
2019-01-23T04:09:28.295Z,3.63
2019-01-23T04:09:59.497Z,3.65
2019-01-23T04:10:30.725Z,3.65
2019-01-23T04:11:01.906Z,3.65
2019-01-23T04:11:33.106Z,3.68
2019-01-23T04:12:04.336Z,3.68
2019-01-23T04:12:35.512Z,3.67
2019-01-23T04:13:06.723Z,3.67
2019-01-23T04:13:37.882Z,3.65
2019-01-23T04:14:09.104Z,3.62
2019-01-23T04:14:40.279Z,3.57
2019-01-23T04:15:11.472Z,3.52
2019-01-23T04:15:42.663Z,3.50
2019-01-23T04:16:13.874Z,3.51
2019-01-23T04:16:45.122Z,3.53
2019-01-23T04:17:16.295Z,3.54
2019-01-23T04:17:47.512Z,3.53
2019-01-23T04:18:18.728Z,3.53
2019-01-23T04:18:49.972Z,3.54
2019-01-23T04:19:21.153Z,3.52
2019-01-23T04:19:52.355Z,3.50
2019-01-23T04:20:23.596Z,3.50
2019-01-23T04:20:54.843Z,3.50
2019-01-23T04:21:26.015Z,3.50
2019-01-23T04:21:57.195Z,3.52
2019-01-23T04:22:28.391Z,3.48
2019-01-23T04:22:59.638Z,3.49
2019-01-23T04:23:30.931Z,3.47
2019-01-23T04:24:02.130Z,3.48
2019-01-23T04:24:33.330Z,3.50
2019-01-23T04:25:04.517Z,3.51
2019-01-23T04:25:35.733Z,3.51
2019-01-23T04:26:06.954Z,3.49
2019-01-23T04:26:38.133Z,3.47
2019-01-23T04:27:09.310Z,3.48
2019-01-23T04:27:40.527Z,3.50
2019-01-23T04:28:11.796Z,3.51
2019-01-23T04:28:42.968Z,3.49
2019-01-23T04:29:14.170Z,3.47
2019-01-23T04:29:45.365Z,3.42
2019-01-23T04:30:16.593Z,3.41
2019-01-23T04:30:47.824Z,3.41
2019-01-23T04:31:19.013Z,3.40
2019-01-23T04:31:50.197Z,3.41
2019-01-23T04:32:21.390Z,3.41
2019-01-23T04:32:52.592Z,3.40
2019-01-23T04:33:23.783Z,3.38
2019-01-23T04:33:54.994Z,3.37
2019-01-23T04:34:26.226Z,3.36
2019-01-23T04:34:57.405Z,3.40
2019-01-23T04:35:28.629Z,3.43
2019-01-23T04:35:59.824Z,3.38
2019-01-23T04:36:31.024Z,3.38
2019-01-23T04:37:02.237Z,3.41
2019-01-23T04:37:33.444Z,3.41
2019-01-23T04:38:04.714Z,3.40
2019-01-23T04:38:35.890Z,3.40
2019-01-23T04:39:07.065Z,3.43
2019-01-23T04:39:38.248Z,3.44
2019-01-23T04:40:09.422Z,3.46
2019-01-23T04:40:40.667Z,3.46
2019-01-23T04:41:11.867Z,3.48
2019-01-23T04:41:43.059Z,3.50
2019-01-23T04:42:14.265Z,3.52
2019-01-23T04:42:45.512Z,3.50
2019-01-23T04:43:16.700Z,3.52
2019-01-23T04:43:47.878Z,3.52
2019-01-23T04:44:19.068Z,3.52
2019-01-23T04:44:50.271Z,3.53
2019-01-23T04:45:21.455Z,3.53
2019-01-23T04:45:52.753Z,3.53
2019-01-23T04:46:23.954Z,3.54
2019-01-23T04:46:55.183Z,3.56
2019-01-23T04:47:26.386Z,3.57
2019-01-23T04:47:57.633Z,3.61
2019-01-23T04:48:28.883Z,3.60
2019-01-23T04:49:00.048Z,3.61
2019-01-23T04:49:31.243Z,3.59
2019-01-23T04:50:02.413Z,3.60
2019-01-23T04:50:33.580Z,3.61
2019-01-23T04:51:04.849Z,3.61
2019-01-23T04:51:36.921Z,3.62
2019-01-23T04:52:08.143Z,3.59
2019-01-23T04:52:39.320Z,3.57
2019-01-23T04:53:10.513Z,3.58
2019-01-23T04:53:41.702Z,3.55
2019-01-23T04:54:12.887Z,3.55
2019-01-23T04:54:44.097Z,3.55
2019-01-23T04:55:15.343Z,3.54
2019-01-23T04:55:46.527Z,3.50
2019-01-23T04:56:18.931Z,3.48
2019-01-23T04:56:50.144Z,3.48
2019-01-23T04:57:21.352Z,3.48
2019-01-23T04:57:52.564Z,3.50
2019-01-23T04:58:23.791Z,3.54
2019-01-23T04:58:54.961Z,3.53
2019-01-23T04:59:26.154Z,3.56
2019-01-23T04:59:57.334Z,3.57
2019-01-23T05:00:28.556Z,3.58
2019-01-23T05:00:59.791Z,3.57
2019-01-23T05:01:31.036Z,3.56
2019-01-23T05:02:02.230Z,3.52
2019-01-23T05:02:33.409Z,3.53
2019-01-23T05:03:04.594Z,3.54
2019-01-23T05:03:35.895Z,3.54
2019-01-23T05:04:09.161Z,3.58
2019-01-23T05:04:40.362Z,3.55
2019-01-23T05:05:11.605Z,3.55
2019-01-23T05:05:42.771Z,3.50
2019-01-23T05:06:13.965Z,3.52
2019-01-23T05:06:45.149Z,3.52
2019-01-23T05:07:16.320Z,3.52
2019-01-23T05:07:47.488Z,3.52
2019-01-23T05:08:18.700Z,3.54
2019-01-23T05:08:49.881Z,3.54
2019-01-23T05:09:21.075Z,3.56
2019-01-23T05:09:52.267Z,3.59
2019-01-23T05:10:23.496Z,3.57
2019-01-23T05:10:54.681Z,3.57
2019-01-23T05:11:25.883Z,3.57
2019-01-23T05:11:57.086Z,3.61
2019-01-23T05:12:28.291Z,3.60
2019-01-23T05:12:59.528Z,3.61
2019-01-23T05:13:30.708Z,3.64
2019-01-23T05:14:01.901Z,3.68
2019-01-23T05:14:33.074Z,3.72
2019-01-23T05:15:04.277Z,3.76
2019-01-23T05:15:35.481Z,3.80
2019-01-23T05:16:06.695Z,3.83
2019-01-23T05:16:37.869Z,3.85
2019-01-23T05:17:09.039Z,3.89
2019-01-23T05:17:40.205Z,3.93
2019-01-23T05:18:11.426Z,3.20
2019-01-23T05:18:42.642Z,3.98
2019-01-23T05:19:13.823Z,4.00
2019-01-23T05:19:45.044Z,3.97
2019-01-23T05:20:16.252Z,3.97
2019-01-23T05:20:47.442Z,3.96
2019-01-23T05:21:18.637Z,3.96
2019-01-23T05:21:49.803Z,3.98
2019-01-23T05:22:21.021Z,3.97
2019-01-23T05:22:52.253Z,4.01
2019-01-23T05:23:23.421Z,4.02
2019-01-23T05:23:54.623Z,4.08
2019-01-23T05:24:25.818Z,4.10
2019-01-23T05:24:57.005Z,4.10
2019-01-23T05:25:28.174Z,4.16
2019-01-23T05:25:59.371Z,4.22
2019-01-23T05:26:30.559Z,4.29
2019-01-23T05:27:01.734Z,4.32
2019-01-23T05:27:32.923Z,4.33
2019-01-23T05:28:04.081Z,4.33
2019-01-23T05:28:35.283Z,4.29
2019-01-23T05:29:06.547Z,4.25
2019-01-23T05:29:37.763Z,4.23
2019-01-23T05:30:08.942Z,4.24
2019-01-23T05:30:40.114Z,4.26
2019-01-23T05:31:11.296Z,4.26
2019-01-23T05:31:42.497Z,4.19
2019-01-23T05:32:13.733Z,4.18
2019-01-23T05:32:44.917Z,4.18
2019-01-23T05:33:16.104Z,4.16
2019-01-23T05:33:47.323Z,4.14
2019-01-23T05:34:18.583Z,4.14
2019-01-23T05:34:49.776Z,4.17
2019-01-23T05:35:20.966Z,4.17
2019-01-23T05:35:52.176Z,4.17
2019-01-23T05:36:23.364Z,4.18
2019-01-23T05:36:54.569Z,4.19
2019-01-23T05:37:25.807Z,4.20
2019-01-23T05:37:57.001Z,4.20
2019-01-23T05:38:28.201Z,4.19
2019-01-23T05:38:59.392Z,4.19
2019-01-23T05:39:30.600Z,4.19
2019-01-23T05:40:01.786Z,4.18
2019-01-23T05:40:32.969Z,4.18
2019-01-23T05:41:04.156Z,4.20
2019-01-23T05:41:35.442Z,4.18
2019-01-23T05:42:06.613Z,4.16
2019-01-23T05:42:37.790Z,4.13
2019-01-23T05:43:08.977Z,4.11
2019-01-23T05:43:40.166Z,4.09
2019-01-23T05:44:11.374Z,4.08
2019-01-23T05:44:42.610Z,4.08
2019-01-23T05:45:13.799Z,4.11
2019-01-23T05:45:44.990Z,4.13
2019-01-23T05:46:16.597Z,4.14
2019-01-23T05:46:47.798Z,4.18
2019-01-23T05:47:18.950Z,4.21
2019-01-23T05:47:50.168Z,4.21
2019-01-23T05:48:21.304Z,4.20
2019-01-23T05:48:52.505Z,4.18
2019-01-23T05:49:23.710Z,4.16
2019-01-23T05:49:55.207Z,4.17
2019-01-23T05:50:26.376Z,4.17
2019-01-23T05:50:57.607Z,4.16
2019-01-23T05:51:28.806Z,4.17
2019-01-23T05:52:00.010Z,4.18
2019-01-23T05:52:31.205Z,4.14
2019-01-23T05:53:02.387Z,4.11
2019-01-23T05:53:33.598Z,4.10
2019-01-23T05:54:04.805Z,4.09
2019-01-23T05:54:35.987Z,4.06
2019-01-23T05:55:07.183Z,4.06
2019-01-23T05:55:38.367Z,4.02
2019-01-23T05:56:09.629Z,4.02
2019-01-23T05:56:40.811Z,4.01
2019-01-23T05:57:11.991Z,4.02
2019-01-23T05:57:43.208Z,4.01
2019-01-23T05:58:14.423Z,4.03
2019-01-23T05:58:45.657Z,4.03
2019-01-23T05:59:16.827Z,3.99
2019-01-23T05:59:48.043Z,3.99
2019-01-23T06:00:19.277Z,4.00
2019-01-23T06:00:50.481Z,4.01
2019-01-23T06:01:21.700Z,4.03
2019-01-23T06:01:52.906Z,4.05
2019-01-23T06:02:24.108Z,4.07
2019-01-23T06:02:55.312Z,4.08
2019-01-23T06:03:26.485Z,4.10
2019-01-23T06:03:57.677Z,4.11
2019-01-23T06:04:28.831Z,4.11
2019-01-23T06:05:00.031Z,4.10
2019-01-23T06:05:31.211Z,4.14
2019-01-23T06:06:02.412Z,4.13
2019-01-23T06:06:33.645Z,4.13
2019-01-23T06:07:04.865Z,4.11
2019-01-23T06:07:36.049Z,4.11
2019-01-23T06:08:07.325Z,4.08
2019-01-23T06:08:38.504Z,4.10
2019-01-23T06:09:09.684Z,4.10
2019-01-23T06:09:40.867Z,4.11
2019-01-23T06:10:12.054Z,4.13
2019-01-23T06:10:43.335Z,4.17
2019-01-23T06:11:14.546Z,4.16
2019-01-23T06:11:45.791Z,4.18
2019-01-23T06:12:16.978Z,4.21
2019-01-23T06:12:48.164Z,4.22
2019-01-23T06:13:19.341Z,4.24
2019-01-23T06:13:50.524Z,4.25
2019-01-23T06:14:21.716Z,4.27
2019-01-23T06:14:52.921Z,4.29
2019-01-23T06:15:24.133Z,4.31
2019-01-23T06:15:55.362Z,4.34
2019-01-23T06:16:26.553Z,4.33
2019-01-23T06:16:57.791Z,4.34
2019-01-23T06:17:28.991Z,4.35
2019-01-23T06:18:00.180Z,4.34
2019-01-23T06:18:31.427Z,4.36
2019-01-23T06:19:02.628Z,4.34
2019-01-23T06:19:33.833Z,4.32
2019-01-23T06:20:05.007Z,4.30
2019-01-23T06:20:36.213Z,4.32
2019-01-23T06:21:07.395Z,4.34
2019-01-23T06:21:38.601Z,4.34
2019-01-23T06:22:09.846Z,4.33
2019-01-23T06:22:41.063Z,4.33
2019-01-23T06:23:12.298Z,4.33
2019-01-23T06:23:43.519Z,4.34
2019-01-23T06:24:14.732Z,4.37
2019-01-23T06:24:45.871Z,4.38
2019-01-23T06:25:17.075Z,4.38
2019-01-23T06:25:48.239Z,4.40
2019-01-23T06:26:19.389Z,4.40
2019-01-23T06:26:50.609Z,4.41
2019-01-23T06:27:21.786Z,4.42
2019-01-23T06:27:53.032Z,4.41
2019-01-23T06:28:24.209Z,4.43
2019-01-23T06:28:55.421Z,4.37
2019-01-23T06:29:26.593Z,4.33
2019-01-23T06:29:57.792Z,4.32
2019-01-23T06:30:28.962Z,4.36
2019-01-23T06:31:00.154Z,4.41
2019-01-23T06:31:31.374Z,4.45
2019-01-23T06:32:02.584Z,4.46
2019-01-23T06:32:33.807Z,4.47
2019-01-23T06:33:05.052Z,4.46
2019-01-23T06:33:36.221Z,4.44
2019-01-23T06:34:07.421Z,4.46
2019-01-23T06:34:38.596Z,4.47
2019-01-23T06:35:09.804Z,4.47
2019-01-23T06:35:40.980Z,4.45
2019-01-23T06:36:12.214Z,4.45
2019-01-23T06:36:43.387Z,4.45
2019-01-23T06:37:15.641Z,4.47
2019-01-23T06:37:47.015Z,4.46
2019-01-23T06:38:18.192Z,4.47
2019-01-23T06:38:49.352Z,4.47
2019-01-23T06:39:20.525Z,4.48
2019-01-23T06:39:51.682Z,4.49
2019-01-23T06:40:22.905Z,4.51
2019-01-23T06:40:54.160Z,4.52
2019-01-23T06:41:25.333Z,4.53
2019-01-23T06:41:56.507Z,4.55
2019-01-23T06:42:27.739Z,4.59
2019-01-23T06:42:58.936Z,4.60
2019-01-23T06:43:30.126Z,4.61
2019-01-23T06:44:01.299Z,4.60
2019-01-23T06:44:32.485Z,4.59
2019-01-23T06:45:03.655Z,4.57
2019-01-23T06:45:34.921Z,4.55
2019-01-23T06:46:06.083Z,4.53
2019-01-23T06:46:37.259Z,4.55
2019-01-23T06:47:08.456Z,4.55
2019-01-23T06:47:39.611Z,4.54
2019-01-23T06:48:10.798Z,4.53
2019-01-23T06:48:42.081Z,4.56
2019-01-23T06:49:13.355Z,4.58
2019-01-23T06:49:44.581Z,4.59
2019-01-23T06:50:15.767Z,4.60
2019-01-23T06:50:46.937Z,4.60
2019-01-23T06:51:18.341Z,4.62
2019-01-23T06:51:53.987Z,4.63
2019-01-23T06:52:25.948Z,4.64
2019-01-23T06:52:58.465Z,4.66
2019-01-23T06:53:29.844Z,4.64
2019-01-23T06:54:01.234Z,4.67
2019-01-23T06:54:33.173Z,4.69
2019-01-23T06:55:04.462Z,4.72
2019-01-23T06:55:38.270Z,4.75